Time;durP1;ratioP1;P1;durP2;ratioP2;P2;SDS_P1;SDS_P2;PMS_P1;PMS_P2;Temp;Humidity;BMP_temperature;BMP_pressure;BME280_temperature;BME280_humidity;BME280_pressure;Samples;Min_cycle;Max_cycle;Signal;HPM_P1;HPM_P2
2022/04/18 00:00:04;;;;;;;0.20;0.20;;;6.50;91.50;;;;;;4974313;28;20186;-95
2022/04/18 00:02:30;;;;;;;0.20;0.20;;;6.60;91.10;;;;;;4972573;28;20449;-95
2022/04/18 00:04:56;;;;;;;0.23;0.23;;;6.50;91.40;;;;;;4971750;28;20467;-94
2022/04/18 00:07:21;;;;;;;0.27;0.27;;;6.60;91.20;;;;;;4973750;28;20193;-95
2022/04/18 00:09:47;;;;;;;0.20;0.20;;;6.60;91.40;;;;;;4973270;28;20781;-94
2022/04/18 00:12:12;;;;;;;0.30;0.30;;;6.70;91.30;;;;;;4976064;28;20248;-94
2022/04/18 00:14:38;;;;;;;0.20;0.20;;;6.50;92.30;;;;;;4974218;28;20228;-94
2022/04/18 00:17:08;;;;;;;0.20;0.20;;;6.10;93.60;;;;;;4973419;28;20185;-95
2022/04/18 00:19:35;;;;;;;0.20;0.20;;;6.20;93.30;;;;;;4982077;28;20315;-95
2022/04/18 00:22:01;;;;;;;0.23;0.23;;;6.40;92.90;;;;;;4978207;28;20440;-94
2022/04/18 00:24:26;;;;;;;0.30;0.30;;;6.40;92.60;;;;;;4974486;28;20452;-95
2022/04/18 00:26:52;;;;;;;0.20;0.20;;;6.30;92.80;;;;;;4973274;28;20205;-95
2022/04/18 00:29:18;;;;;;;0.20;0.20;;;6.20;93.10;;;;;;4972233;28;20508;-95
2022/04/18 00:31:44;;;;;;;0.23;0.23;;;6.20;92.90;;;;;;4984919;28;20221;-95
2022/04/18 00:34:09;;;;;;;0.30;0.30;;;6.30;92.40;;;;;;4969317;28;20649;-94
2022/04/18 00:36:35;;;;;;;0.20;0.20;;;6.10;92.60;;;;;;4974906;28;20194;-94
2022/04/18 00:39:00;;;;;;;0.20;0.20;;;6.10;93.10;;;;;;4968407;28;20202;-95
2022/04/18 00:41:26;;;;;;;0.20;0.20;;;6.20;92.20;;;;;;4968832;28;20261;-95
2022/04/18 00:43:52;;;;;;;0.20;0.20;;;6.20;92.90;;;;;;4968711;28;20205;-95
2022/04/18 00:46:19;;;;;;;0.20;0.20;;;5.90;93.10;;;;;;4975346;28;20186;-94
2022/04/18 00:48:45;;;;;;;0.30;0.30;;;5.70;94.00;;;;;;4956649;28;20222;-94
2022/04/18 00:51:13;;;;;;;0.20;0.20;;;5.70;93.20;;;;;;4971873;28;20503;-94
2022/04/18 00:53:42;;;;;;;0.30;0.30;;;5.70;93.90;;;;;;4967562;28;20491;-94
2022/04/18 00:56:09;;;;;;;0.30;0.30;;;5.80;94.10;;;;;;4971131;28;20445;-95
2022/04/18 00:58:36;;;;;;;0.20;0.20;;;5.70;94.40;;;;;;4965010;28;20453;-94
2022/04/18 01:01:03;;;;;;;0.20;0.20;;;5.60;94.60;;;;;;4967277;28;20453;-94
2022/04/18 01:03:30;;;;;;;0.30;0.30;;;5.60;95.20;;;;;;4968873;28;20466;-94
2022/04/18 01:05:59;;;;;;;0.30;0.30;;;5.50;95.70;;;;;;4967967;28;20460;-94
2022/04/18 01:08:25;;;;;;;0.30;0.30;;;5.30;96.40;;;;;;4968296;28;20465;-95
2022/04/18 01:10:52;;;;;;;0.27;0.27;;;5.30;96.70;;;;;;4968089;28;20860;-95
2022/04/18 01:13:18;;;;;;;0.27;0.27;;;5.20;97.20;;;;;;4971557;28;20802;-95
2022/04/18 01:15:43;;;;;;;0.20;0.20;;;5.30;97.60;;;;;;4970468;28;20448;-94
2022/04/18 01:18:09;;;;;;;0.20;0.20;;;5.30;97.30;;;;;;4972308;28;20193;-95
2022/04/18 01:20:35;;;;;;;0.30;0.30;;;5.30;97.20;;;;;;4971004;28;20198;-94
2022/04/18 01:23:04;;;;;;;0.30;0.30;;;5.30;97.60;;;;;;4970005;28;20273;-93
2022/04/18 01:30:57;;;;;;;0.30;0.30;;;5.30;97.30;;;;;;4967571;28;20466;-94
2022/04/18 01:33:23;;;;;;;0.30;0.30;;;5.20;97.90;;;;;;4969289;28;20453;-95
2022/04/18 01:35:49;;;;;;;0.30;0.30;;;5.10;98.30;;;;;;4967552;28;20565;-94
2022/04/18 01:38:15;;;;;;;0.30;0.30;;;5.40;97.50;;;;;;4970796;28;20441;-94
2022/04/18 01:40:40;;;;;;;0.20;0.20;;;5.40;97.30;;;;;;4952254;28;20191;-95
2022/04/18 01:43:06;;;;;;;0.30;0.30;;;5.60;96.10;;;;;;4986887;28;20197;-94
2022/04/18 01:45:32;;;;;;;0.30;0.30;;;5.50;96.50;;;;;;4968732;28;20190;-95
2022/04/18 01:47:58;;;;;;;0.30;0.30;;;5.30;96.40;;;;;;4956133;28;20474;-94
2022/04/18 01:50:23;;;;;;;0.30;0.30;;;5.20;96.70;;;;;;4968889;28;20580;-94
2022/04/18 01:52:49;;;;;;;0.30;0.30;;;5.10;96.70;;;;;;4973194;28;20478;-95
2022/04/18 01:55:14;;;;;;;0.30;0.30;;;5.10;97.20;;;;;;4973182;28;20196;-94
2022/04/18 01:57:40;;;;;;;0.30;0.30;;;5.10;97.40;;;;;;4966814;28;20193;-94
2022/04/18 02:00:06;;;;;;;0.30;0.30;;;5.10;97.10;;;;;;4964135;28;20191;-94
2022/04/18 02:02:31;;;;;;;0.30;0.30;;;5.10;96.70;;;;;;4968810;28;20646;-94
2022/04/18 02:04:57;;;;;;;0.20;0.20;;;5.20;97.20;;;;;;4965858;28;20453;-93
2022/04/18 02:07:22;;;;;;;0.20;0.20;;;5.10;97.60;;;;;;4971230;28;20339;-94
2022/04/18 02:09:48;;;;;;;0.30;0.30;;;4.90;98.30;;;;;;4969242;28;20267;-93
2022/04/18 02:12:13;;;;;;;0.30;0.30;;;4.80;98.40;;;;;;4962769;28;20194;-95
2022/04/18 02:14:39;;;;;;;0.30;0.30;;;4.80;98.80;;;;;;4971841;28;20190;-94
2022/04/18 02:17:04;;;;;;;0.23;0.23;;;4.70;99.00;;;;;;4968702;28;20186;-93
2022/04/18 02:19:30;;;;;;;0.30;0.30;;;4.60;99.40;;;;;;4967978;28;20255;-94
2022/04/18 02:21:56;;;;;;;0.30;0.30;;;4.60;99.80;;;;;;4969973;28;20610;-93
2022/04/18 02:24:21;;;;;;;0.33;0.33;;;4.60;99.90;;;;;;4973081;28;20548;-94
2022/04/18 02:26:47;;;;;;;0.30;0.30;;;4.70;99.90;;;;;;4980934;28;20217;-93
2022/04/18 02:29:12;;;;;;;0.30;0.30;;;4.80;99.90;;;;;;4963710;28;20341;-93
2022/04/18 02:34:22;;;;;;;0.30;0.30;;;4.90;99.90;;;;;;4968940;28;20177;-94
2022/04/18 02:36:48;;;;;;;0.30;0.30;;;4.90;99.80;;;;;;4973106;28;20449;-94
2022/04/18 02:39:14;;;;;;;0.20;0.20;;;4.90;99.90;;;;;;4970547;28;20668;-94
2022/04/18 02:41:39;;;;;;;0.30;0.30;;;4.90;97.10;;;;;;4968917;28;20529;-95
2022/04/18 02:44:05;;;;;;;0.30;0.30;;;4.90;98.10;;;;;;4970994;28;20193;-94
2022/04/18 02:46:31;;;;;;;0.20;0.20;;;4.90;98.40;;;;;;4971244;28;20297;-94
2022/04/18 02:48:56;;;;;;;0.30;0.30;;;4.80;99.30;;;;;;4972068;28;20256;-92
2022/04/18 02:51:27;;;;;;;0.33;0.33;;;4.60;99.80;;;;;;4973157;28;20182;-94
2022/04/18 02:53:53;;;;;;;0.20;0.20;;;4.50;99.60;;;;;;4954349;28;20645;-93
2022/04/18 02:56:19;;;;;;;0.27;0.27;;;4.30;99.90;;;;;;4972413;28;20442;-93
2022/04/18 02:58:45;;;;;;;0.27;0.27;;;4.20;99.90;;;;;;4972649;28;20533;-93
2022/04/18 03:01:11;;;;;;;0.30;0.30;;;4.10;99.90;;;;;;4973404;28;20189;-94
2022/04/18 03:03:36;;;;;;;0.30;0.30;;;4.20;99.90;;;;;;4967179;28;20191;-93
2022/04/18 03:06:02;;;;;;;0.40;0.40;;;4.30;99.90;;;;;;4972657;28;20190;-94
2022/04/18 03:08:27;;;;;;;0.30;0.30;;;4.40;99.90;;;;;;4974633;28;20268;-93
2022/04/18 03:11:09;;;;;;;0.30;0.30;;;4.40;99.90;;;;;;4974383;28;20696;-94
2022/04/18 03:13:36;;;;;;;0.30;0.30;;;4.20;99.90;;;;;;4974384;28;20240;-93
2022/04/18 03:16:03;;;;;;;0.30;0.30;;;4.10;99.90;;;;;;4972299;28;20515;-94
2022/04/18 03:18:29;;;;;;;0.37;0.37;;;3.90;99.90;;;;;;4965449;28;20524;-94
2022/04/18 03:20:55;;;;;;;0.40;0.40;;;3.80;99.90;;;;;;4977321;28;20531;-94
2022/04/18 03:23:20;;;;;;;0.20;0.20;;;3.70;99.90;;;;;;4968117;28;20175;-95
2022/04/18 03:25:46;;;;;;;0.37;0.37;;;3.60;99.90;;;;;;4969442;28;20194;-93
2022/04/18 03:28:12;;;;;;;0.40;0.40;;;3.70;99.90;;;;;;4975135;28;20246;-94
2022/04/18 03:30:37;;;;;;;0.40;0.40;;;3.60;99.90;;;;;;4961821;28;20253;-94
2022/04/18 03:33:03;;;;;;;0.40;0.40;;;3.50;99.90;;;;;;4971548;28;21160;-94
2022/04/18 03:35:30;;;;;;;0.47;0.47;;;3.50;99.90;;;;;;4973081;28;20709;-94
2022/04/18 03:40:40;;;;;;;0.40;0.40;;;3.40;99.90;;;;;;4975594;28;20441;-94
2022/04/18 03:43:05;;;;;;;0.40;0.40;;;3.40;99.90;;;;;;4970629;28;20445;-94
2022/04/18 03:45:31;;;;;;;0.40;0.40;;;3.50;99.90;;;;;;4964314;28;20213;-93
2022/04/18 03:47:57;;;;;;;0.40;0.40;;;3.60;99.90;;;;;;4970621;28;20284;-95
2022/04/18 03:50:22;;;;;;;0.50;0.50;;;3.60;99.90;;;;;;4974508;28;20237;-95
2022/04/18 03:52:48;;;;;;;0.40;0.40;;;3.70;99.90;;;;;;4976717;28;20287;-94
2022/04/18 03:55:13;;;;;;;0.40;0.40;;;3.90;99.90;;;;;;4968760;28;20201;-93
2022/04/18 03:57:39;;;;;;;0.40;0.40;;;3.90;99.90;;;;;;4972382;28;20202;-94
2022/04/18 04:00:06;;;;;;;0.40;0.40;;;3.90;99.90;;;;;;4958463;28;20614;-93
2022/04/18 04:02:31;;;;;;;0.50;0.50;;;3.70;99.90;;;;;;4973124;28;20197;-93
2022/04/18 04:04:57;;;;;;;0.50;0.50;;;3.60;99.90;;;;;;4971976;28;20449;-93
2022/04/18 04:07:22;;;;;;;0.50;0.50;;;3.50;99.90;;;;;;4974869;28;20194;-95
2022/04/18 04:09:48;;;;;;;0.40;0.40;;;3.40;99.90;;;;;;4972349;28;20230;-95
2022/04/18 04:12:13;;;;;;;0.50;0.50;;;3.40;99.90;;;;;;4971694;28;20194;-94
2022/04/18 04:14:39;;;;;;;0.40;0.40;;;3.30;99.90;;;;;;4974070;28;20205;-94
2022/04/18 04:17:05;;;;;;;0.50;0.50;;;3.20;99.90;;;;;;4972508;28;20208;-94
2022/04/18 04:19:30;;;;;;;0.50;0.50;;;3.20;99.90;;;;;;4965712;28;20190;-95
2022/04/18 04:21:56;;;;;;;0.50;0.50;;;3.30;99.90;;;;;;4977346;28;20193;-94
2022/04/18 04:24:22;;;;;;;0.50;0.50;;;3.20;99.90;;;;;;4970696;28;20183;-95
2022/04/18 04:26:48;;;;;;;0.50;0.50;;;3.20;99.90;;;;;;4973014;28;20273;-93
2022/04/18 04:29:15;;;;;;;0.40;0.40;;;3.20;99.90;;;;;;4975227;28;20220;-95
2022/04/18 04:31:40;;;;;;;0.50;0.50;;;3.00;99.90;;;;;;4961552;28;20529;-95
2022/04/18 04:34:06;;;;;;;0.40;0.40;;;3.10;99.90;;;;;;4963640;28;20503;-94
2022/04/18 04:36:32;;;;;;;0.40;0.40;;;3.10;99.90;;;;;;4976621;28;20186;-94
2022/04/18 04:38:57;;;;;;;0.50;0.50;;;3.00;99.90;;;;;;4979292;28;20236;-95
2022/04/18 04:41:23;;;;;;;0.47;0.47;;;3.10;99.90;;;;;;4972615;28;20190;-95
2022/04/18 04:43:48;;;;;;;0.40;0.40;;;3.20;99.90;;;;;;4975326;28;20197;-94
2022/04/18 04:46:14;;;;;;;0.50;0.50;;;3.40;99.90;;;;;;4970797;28;20183;-96
2022/04/18 04:48:39;;;;;;;0.50;0.50;;;3.50;99.90;;;;;;4974139;28;20232;-95
2022/04/18 04:51:05;;;;;;;0.40;0.40;;;3.70;99.90;;;;;;4966742;28;20206;-95
2022/04/18 04:53:31;;;;;;;0.40;0.40;;;3.80;99.90;;;;;;4975278;28;20241;-95
2022/04/18 04:55:56;;;;;;;0.40;0.40;;;3.80;99.90;;;;;;4964933;28;20186;-95
2022/04/18 04:58:22;;;;;;;0.40;0.40;;;3.90;99.90;;;;;;4968483;28;20446;-95
2022/04/18 05:00:47;;;;;;;0.40;0.40;;;4.10;99.90;;;;;;4981358;28;20197;-94
2022/04/18 05:03:13;;;;;;;0.50;0.50;;;4.10;99.90;;;;;;4967455;28;20589;-94
2022/04/18 05:05:39;;;;;;;0.40;0.40;;;4.10;99.90;;;;;;4966288;28;20244;-92
2022/04/18 05:08:05;;;;;;;0.40;0.40;;;4.40;99.90;;;;;;4969633;28;20230;-96
2022/04/18 05:10:31;;;;;;;0.50;0.50;;;4.40;99.90;;;;;;4970756;28;20489;-95
2022/04/18 05:12:56;;;;;;;0.33;0.33;;;4.50;99.90;;;;;;4960307;28;20664;-95
2022/04/18 05:15:22;;;;;;;0.40;0.40;;;4.60;99.90;;;;;;4977411;28;20736;-94
2022/04/18 05:17:48;;;;;;;0.40;0.40;;;4.60;99.90;;;;;;4970941;28;20595;-93
2022/04/18 05:20:13;;;;;;;0.40;0.40;;;4.70;99.90;;;;;;4964152;28;20645;-96
2022/04/18 05:22:39;;;;;;;0.30;0.30;;;4.90;99.90;;;;;;4977463;28;20584;-95
2022/04/18 05:25:05;;;;;;;0.43;0.43;;;5.10;99.90;;;;;;4972828;28;20265;-96
2022/04/18 05:27:31;;;;;;;0.40;0.40;;;5.10;99.90;;;;;;4994096;28;20212;-95
2022/04/18 05:29:56;;;;;;;0.40;0.40;;;5.10;99.90;;;;;;4973240;28;20560;-94
2022/04/18 05:32:22;;;;;;;0.40;0.40;;;5.40;99.90;;;;;;4955182;28;20196;-94
2022/04/18 05:34:48;;;;;;;0.40;0.40;;;5.40;99.90;;;;;;4973488;28;20194;-94
2022/04/18 05:37:13;;;;;;;0.40;0.40;;;5.30;99.90;;;;;;4972236;28;20222;-94
2022/04/18 05:39:39;;;;;;;0.30;0.30;;;5.40;99.90;;;;;;4971440;28;20190;-96
2022/04/18 05:42:06;;;;;;;0.30;0.30;;;5.70;99.90;;;;;;4963388;28;20284;-96
2022/04/18 05:44:33;;;;;;;0.30;0.30;;;5.70;99.90;;;;;;4963009;28;20194;-96
2022/04/18 05:46:59;;;;;;;0.30;0.30;;;6.00;99.90;;;;;;4943143;28;20449;-96
2022/04/18 05:49:24;;;;;;;0.30;0.30;;;6.20;99.90;;;;;;4970472;28;20836;-96
2022/04/18 05:51:50;;;;;;;0.30;0.30;;;6.50;99.90;;;;;;4975861;28;20445;-96
2022/04/18 05:54:25;;;;;;;0.30;0.30;;;6.60;99.90;;;;;;5034467;23;20205;-96
2022/04/18 05:56:50;;;;;;;0.30;0.30;;;6.80;99.90;;;;;;4971061;28;20622;-95
2022/04/18 05:59:16;;;;;;;0.23;0.23;;;7.00;99.90;;;;;;4962466;28;20523;-96
2022/04/18 06:01:42;;;;;;;0.30;0.30;;;7.10;99.90;;;;;;4975915;23;20234;-96
2022/04/18 06:04:07;;;;;;;0.20;0.20;;;7.20;99.90;;;;;;4953626;29;20195;-96
2022/04/18 06:13:19;;;;;;;0.30;0.30;;;7.80;99.90;;;;;;4971318;29;20437;-96
2022/04/18 06:15:47;;;;;;;0.30;0.30;;;8.00;99.90;;;;;;4977864;28;20510;-96
2022/04/18 06:18:13;;;;;;;0.30;0.30;;;8.10;99.90;;;;;;4969657;28;20473;-96
2022/04/18 06:20:38;;;;;;;0.30;0.30;;;8.20;99.90;;;;;;4967233;28;20446;-96
2022/04/18 06:23:04;;;;;;;0.30;0.30;;;8.30;99.90;;;;;;4967254;28;20198;-95
2022/04/18 06:25:30;;;;;;;0.20;0.20;;;8.40;99.90;;;;;;4954125;28;20263;-95
2022/04/18 06:27:56;;;;;;;0.30;0.30;;;8.60;99.90;;;;;;4949084;28;20186;-92
2022/04/18 06:30:21;;;;;;;0.20;0.20;;;8.70;99.90;;;;;;4947839;28;20827;-91
2022/04/18 06:32:47;;;;;;;0.30;0.30;;;8.90;99.90;;;;;;4944120;28;20193;-90
2022/04/18 06:35:12;;;;;;;0.20;0.20;;;9.00;99.90;;;;;;4934771;28;20190;-91
2022/04/18 06:37:38;;;;;;;0.27;0.27;;;9.20;99.90;;;;;;4958548;28;20233;-91
2022/04/18 06:40:04;;;;;;;0.30;0.30;;;9.20;99.90;;;;;;4957855;28;20210;-92
2022/04/18 06:42:34;;;;;;;0.23;0.23;;;9.40;99.90;;;;;;4959701;28;20197;-93
2022/04/18 06:45:00;;;;;;;0.20;0.20;;;9.50;99.90;;;;;;4958222;28;20506;-91
2022/04/18 06:47:26;;;;;;;0.30;0.30;;;9.60;99.90;;;;;;4960276;28;20450;-91
2022/04/18 06:49:51;;;;;;;0.30;0.30;;;9.70;99.90;;;;;;4958776;28;20989;-88
2022/04/18 06:52:16;;;;;;;0.20;0.20;;;9.70;99.90;;;;;;4960378;28;20187;-92
2022/04/18 06:54:42;;;;;;;0.30;0.30;;;9.90;99.90;;;;;;4960252;28;20197;-92
2022/04/18 06:57:07;;;;;;;0.20;0.20;;;10.00;99.90;;;;;;4960090;28;20273;-91
2022/04/18 06:59:33;;;;;;;0.20;0.20;;;10.00;99.90;;;;;;4957172;28;20206;-92
2022/04/18 07:01:59;;;;;;;0.20;0.20;;;10.30;99.90;;;;;;4957060;28;20190;-91
2022/04/18 07:04:25;;;;;;;0.20;0.20;;;10.30;99.90;;;;;;4955867;28;20190;-91
2022/04/18 07:06:51;;;;;;;0.20;0.20;;;10.50;99.90;;;;;;4955330;28;20516;-93
2022/04/18 07:09:17;;;;;;;0.20;0.20;;;10.70;99.90;;;;;;4959038;29;20500;-91
2022/04/18 07:11:45;;;;;;;0.20;0.20;;;10.70;99.90;;;;;;4959157;28;20199;-91
2022/04/18 07:14:11;;;;;;;0.20;0.20;;;10.70;99.90;;;;;;4959205;28;20449;-90
2022/04/18 07:16:36;;;;;;;0.20;0.20;;;10.80;99.90;;;;;;4956618;28;20473;-90
2022/04/18 07:19:02;;;;;;;0.20;0.20;;;10.90;99.90;;;;;;4953960;28;21077;-90
2022/04/18 07:21:27;;;;;;;0.20;0.20;;;11.10;99.90;;;;;;4955155;28;22015;-90
2022/04/18 07:23:53;;;;;;;0.20;0.20;;;11.20;99.90;;;;;;4956763;28;20205;-87
2022/04/18 07:26:19;;;;;;;0.20;0.20;;;11.10;99.90;;;;;;4958589;28;20257;-88
2022/04/18 07:28:46;;;;;;;0.20;0.20;;;11.00;99.90;;;;;;4956692;28;20261;-88
2022/04/18 07:31:12;;;;;;;0.20;0.20;;;11.10;99.90;;;;;;4956706;28;20453;-88
2022/04/18 07:33:37;;;;;;;0.20;0.20;;;11.40;99.90;;;;;;4949372;28;20458;-89
2022/04/18 07:36:03;;;;;;;0.20;0.20;;;11.40;99.90;;;;;;4956563;28;21278;-90
2022/04/18 07:41:18;;;;;;;0.20;0.20;;;11.60;99.90;;;;;;4959493;28;20870;-89
2022/04/18 07:43:44;;;;;;;0.10;0.10;;;12.10;99.90;;;;;;4957770;28;20446;-90
2022/04/18 07:46:10;;;;;;;0.20;0.20;;;12.10;99.90;;;;;;4970554;28;20977;-89
2022/04/18 07:48:36;;;;;;;0.20;0.20;;;11.70;99.80;;;;;;4948929;28;20698;-88
2022/04/18 07:53:46;;;;;;;0.13;0.13;;;11.90;99.90;;;;;;4950446;28;20206;-93
2022/04/18 07:56:11;;;;;;;0.20;0.20;;;12.40;99.90;;;;;;4958535;28;20454;-87
2022/04/18 07:58:37;;;;;;;0.20;0.20;;;12.70;99.90;;;;;;4948738;28;20301;-88
2022/04/18 08:01:03;;;;;;;0.20;0.20;;;12.20;98.90;;;;;;4954078;28;20205;-87
2022/04/18 08:03:28;;;;;;;0.20;0.20;;;12.30;99.60;;;;;;4954328;28;20669;-89
2022/04/18 08:05:56;;;;;;;0.20;0.20;;;12.30;99.50;;;;;;4950362;28;20209;-88
2022/04/18 08:08:22;;;;;;;0.20;0.20;;;12.90;99.90;;;;;;4950668;28;20253;-89
2022/04/18 08:10:48;;;;;;;0.10;0.10;;;12.80;98.30;;;;;;4934152;29;20467;-88
2022/04/18 08:13:13;;;;;;;0.10;0.10;;;12.70;97.60;;;;;;4959849;28;20552;-90
2022/04/18 08:15:39;;;;;;;0.20;0.20;;;12.90;97.60;;;;;;4948238;28;20206;-88
2022/04/18 08:18:05;;;;;;;0.10;0.10;;;12.60;97.80;;;;;;4934483;29;20191;-88
2022/04/18 08:20:31;;;;;;;0.20;0.20;;;13.00;97.10;;;;;;4946033;28;20187;-87
2022/04/18 08:22:56;;;;;;;0.10;0.10;;;12.50;97.10;;;;;;4950376;28;20482;-85
2022/04/18 08:25:22;;;;;;;0.20;0.20;;;12.80;97.50;;;;;;4945129;28;20450;-88
2022/04/18 08:27:47;;;;;;;0.20;0.20;;;12.50;97.00;;;;;;4952510;28;20194;-88
2022/04/18 08:30:13;;;;;;;0.20;0.20;;;12.80;97.20;;;;;;4952130;28;20230;-87
2022/04/18 08:32:39;;;;;;;0.20;0.20;;;13.30;97.80;;;;;;4953608;28;20193;-87
2022/04/18 08:35:06;;;;;;;0.20;0.20;;;12.80;96.20;;;;;;4936271;29;20190;-88
2022/04/18 08:37:33;;;;;;;0.10;0.10;;;12.80;96.70;;;;;;4937943;28;20438;-87
2022/04/18 08:39:58;;;;;;;0.20;0.20;;;13.50;97.70;;;;;;4952709;28;20457;-87
2022/04/18 08:42:25;;;;;;;0.10;0.10;;;13.40;96.00;;;;;;4951803;28;20450;-85
2022/04/18 08:44:53;;;;;;;0.10;0.10;;;13.80;94.70;;;;;;4949607;28;20602;-88
2022/04/18 08:52:50;;;;;;;0.10;0.10;;;14.00;95.50;;;;;;4947833;29;20484;-86
2022/04/18 08:55:20;;;;;;;0.10;0.10;;;14.00;95.10;;;;;;4937617;28;20568;-86
2022/04/18 08:57:45;;;;;;;0.10;0.10;;;13.70;92.30;;;;;;4949773;28;20505;-86
2022/04/18 09:00:12;;;;;;;0.10;0.10;;;14.00;93.20;;;;;;4949718;28;20458;-84
2022/04/18 09:02:38;;;;;;;0.10;0.10;;;14.10;93.60;;;;;;4952962;28;20198;-85
2022/04/18 09:05:09;;;;;;;0.10;0.10;;;14.30;91.30;;;;;;4932647;28;20534;-86
2022/04/18 09:07:34;;;;;;;0.10;0.10;;;14.50;91.50;;;;;;4948986;28;20488;-86
2022/04/18 09:10:00;;;;;;;0.10;0.10;;;14.40;90.50;;;;;;4947495;28;20494;-85
2022/04/18 09:12:32;;;;;;;0.10;0.10;;;14.10;90.10;;;;;;4950517;28;20186;-85
2022/04/18 09:14:57;;;;;;;0.10;0.10;;;14.50;89.40;;;;;;4948082;28;20233;-85
2022/04/18 09:17:36;;;;;;;0.10;0.10;;;14.40;88.20;;;;;;4938900;29;20867;-86
2022/04/18 09:20:11;;;;;;;0.10;0.10;;;15.00;90.10;;;;;;4948310;28;20194;-84
2022/04/18 09:22:41;;;;;;;0.10;0.10;;;14.50;86.00;;;;;;4948037;28;20449;-88
2022/04/18 09:25:18;;;;;;;0.10;0.10;;;14.90;90.70;;;;;;4942374;28;20530;-90
2022/04/18 09:28:10;;;;;;;0.10;0.10;;;15.20;85.80;;;;;;4946789;28;20460;-92
2022/04/18 09:30:35;;;;;;;0.10;0.10;;;15.50;86.60;;;;;;4940338;28;20466;-90
2022/04/18 09:33:02;;;;;;;0.10;0.10;;;15.60;82.60;;;;;;4948568;28;20579;-85
2022/04/18 09:35:28;;;;;;;0.10;0.10;;;15.60;85.00;;;;;;4950456;28;20190;-86
2022/04/18 09:38:04;;;;;;;0.10;0.10;;;15.70;83.30;;;;;;4950176;28;20446;-86
2022/04/18 09:40:35;;;;;;;0.10;0.10;;;15.20;80.20;;;;;;4933739;29;20434;-87
2022/04/18 09:43:00;;;;;;;0.10;0.10;;;15.60;81.90;;;;;;4941765;28;20453;-85
2022/04/18 09:45:26;;;;;;;0.10;0.10;;;15.90;80.50;;;;;;4946798;28;20497;-89
2022/04/18 09:47:57;;;;;;;0.10;0.10;;;16.10;80.20;;;;;;4949033;28;20191;-88
2022/04/18 09:53:16;;;;;;;0.10;0.10;;;16.40;78.50;;;;;;4949940;28;20547;-88
2022/04/18 09:55:51;;;;;;;0.10;0.10;;;16.40;79.60;;;;;;4947814;28;20448;-89
2022/04/18 09:58:16;;;;;;;0.10;0.10;;;16.70;80.80;;;;;;4946192;28;20453;-88
2022/04/18 10:00:42;;;;;;;0.10;0.10;;;16.90;78.40;;;;;;4949205;28;20453;-87
2022/04/18 10:03:12;;;;;;;0.10;0.10;;;16.50;77.40;;;;;;4949297;28;20213;-87
2022/04/18 10:05:40;;;;;;;0.10;0.10;;;16.80;77.10;;;;;;4945907;28;20281;-87
2022/04/18 10:08:05;;;;;;;0.10;0.10;;;17.30;79.50;;;;;;4947656;28;20477;-87
2022/04/18 10:10:40;;;;;;;0.10;0.10;;;17.00;76.90;;;;;;4950164;28;20529;-89
2022/04/18 10:13:09;;;;;;;0.10;0.10;;;17.50;73.00;;;;;;4950230;28;20273;-89
2022/04/18 10:15:36;;;;;;;0.10;0.10;;;17.50;72.20;;;;;;4960208;28;20458;-88
2022/04/18 10:18:03;;;;;;;0.10;0.10;;;17.70;71.90;;;;;;4951228;28;20517;-92
2022/04/18 10:21:03;;;;;;;0.10;0.10;;;17.90;69.60;;;;;;4949718;28;20509;-88
2022/04/18 10:24:00;;;;;;;0.10;0.10;;;17.70;68.80;;;;;;4946051;28;20456;-89
2022/04/18 10:27:02;;;;;;;0.10;0.10;;;18.10;73.30;;;;;;4947189;28;20540;-87
2022/04/18 10:29:36;;;;;;;0.10;0.10;;;18.60;66.80;;;;;;4945494;28;20486;-86
2022/04/18 10:32:03;;;;;;;0.10;0.00;;;19.10;68.10;;;;;;4945999;28;20971;-87
2022/04/18 10:34:31;;;;;;;0.10;0.10;;;19.30;71.30;;;;;;4949277;28;20458;-88
2022/04/18 10:37:01;;;;;;;0.10;0.00;;;19.00;68.50;;;;;;4950329;28;21528;-85
2022/04/18 10:39:34;;;;;;;0.10;0.10;;;18.90;66.20;;;;;;4951333;28;20477;-87
2022/04/18 10:42:24;;;;;;;0.10;0.00;;;19.00;68.00;;;;;;4949670;28;20472;-88
2022/04/18 10:45:05;;;;;;;0.10;0.00;;;19.10;68.90;;;;;;4957841;28;20510;-84
2022/04/18 10:47:55;;;;;;;0.10;0.00;;;19.20;62.40;;;;;;4964234;28;20438;-86
2022/04/18 10:50:22;;;;;;;0.10;0.00;;;19.60;66.50;;;;;;4960228;28;20558;-86
2022/04/18 10:53:08;;;;;;;0.10;0.10;;;19.30;62.90;;;;;;4937945;28;20454;-87
2022/04/18 10:55:35;;;;;;;0.10;0.00;;;19.70;63.90;;;;;;4946490;28;20460;-87
2022/04/18 10:58:20;;;;;;;0.00;0.00;;;20.40;64.60;;;;;;4947758;28;20439;-87
2022/04/18 11:00:46;;;;;;;0.00;0.00;;;20.30;65.90;;;;;;4948485;28;20454;-86
2022/04/18 11:03:12;;;;;;;0.00;0.00;;;20.00;66.10;;;;;;4945959;28;20450;-85
2022/04/18 11:05:38;;;;;;;0.00;0.00;;;20.30;64.50;;;;;;4950735;28;20458;-86
2022/04/18 11:08:24;;;;;;;0.00;0.00;;;20.70;63.70;;;;;;4950176;28;20595;-85
2022/04/18 11:10:49;;;;;;;0.00;0.00;;;20.80;63.90;;;;;;4932886;29;20491;-85
2022/04/18 11:13:15;;;;;;;0.00;0.00;;;20.90;67.30;;;;;;4944969;28;20450;-83
2022/04/18 11:15:40;;;;;;;0.00;0.00;;;21.10;64.30;;;;;;4946079;28;20714;-84
2022/04/18 11:18:08;;;;;;;0.00;0.00;;;21.30;59.10;;;;;;4948793;28;20187;-84
2022/04/18 11:20:36;;;;;;;0.00;0.00;;;20.70;63.20;;;;;;4944054;28;20559;-86
2022/04/18 11:23:18;;;;;;;0.00;0.00;;;20.80;65.70;;;;;;4952094;28;20489;-85
2022/04/18 11:25:58;;;;;;;0.00;0.00;;;21.20;60.80;;;;;;4949657;28;20464;-86
2022/04/18 11:28:30;;;;;;;0.00;0.00;;;22.00;64.40;;;;;;4951358;28;20525;-87
2022/04/18 11:30:56;;;;;;;0.00;0.00;;;21.70;59.70;;;;;;4953522;29;21041;-83
2022/04/18 11:33:21;;;;;;;0.00;0.00;;;22.20;59.40;;;;;;4952641;29;20558;-84
2022/04/18 11:35:47;;;;;;;0.00;0.00;;;21.40;59.80;;;;;;4953540;28;20222;-84
2022/04/18 11:38:13;;;;;;;0.00;0.00;;;21.80;59.80;;;;;;4952190;28;20214;-84
2022/04/18 11:40:40;;;;;;;0.00;0.00;;;21.60;61.10;;;;;;4949956;28;20454;-84
2022/04/18 11:43:16;;;;;;;0.00;0.00;;;22.00;64.70;;;;;;4959793;28;20183;-83
2022/04/18 11:45:42;;;;;;;0.00;0.00;;;21.70;59.10;;;;;;4948212;28;20450;-85
2022/04/18 11:48:10;;;;;;;0.00;0.00;;;22.40;58.70;;;;;;4953580;28;20445;-92
2022/04/18 11:50:39;;;;;;;0.00;0.00;;;21.30;58.40;;;;;;4950949;28;20663;-86
2022/04/18 11:53:08;;;;;;;0.00;0.00;;;21.60;58.80;;;;;;4951467;28;20435;-91
2022/04/18 11:55:44;;;;;;;0.00;0.00;;;21.70;58.90;;;;;;4948964;28;20622;-93
2022/04/18 11:58:11;;;;;;;0.00;0.00;;;22.40;60.10;;;;;;4952516;28;20454;-88
2022/04/18 12:08:53;;;;;;;0.00;0.00;;;22.00;63.70;;;;;;4954269;28;21008;-91
2022/04/18 12:11:18;;;;;;;0.00;0.00;;;22.20;58.50;;;;;;4952873;28;20450;-91
2022/04/18 12:13:46;;;;;;;0.00;0.00;;;22.50;59.40;;;;;;4949772;28;20217;-94
2022/04/18 12:16:12;;;;;;;0.00;0.00;;;23.10;59.40;;;;;;4955662;28;20203;-96
2022/04/18 12:18:38;;;;;;;0.00;0.00;;;23.10;61.00;;;;;;4954762;28;21464;-85
2022/04/18 12:21:04;;;;;;;0.00;0.00;;;24.10;62.50;;;;;;4950602;28;20642;-87
2022/04/18 12:23:30;;;;;;;0.00;0.00;;;23.50;61.70;;;;;;4948218;28;20478;-84
2022/04/18 12:25:58;;;;;;;0.00;0.00;;;23.10;61.30;;;;;;4936282;28;20186;-86
2022/04/18 12:28:26;;;;;;;0.00;0.00;;;23.70;61.00;;;;;;4940155;28;21542;-83
2022/04/18 12:30:52;;;;;;;0.00;0.00;;;24.40;56.00;;;;;;4947792;28;22062;-83
2022/04/18 12:33:22;;;;;;;0.00;0.00;;;23.20;58.30;;;;;;4945495;28;20505;-86
2022/04/18 12:35:51;;;;;;;0.00;0.00;;;23.40;57.10;;;;;;4961182;28;20433;-87
2022/04/18 12:38:18;;;;;;;0.00;0.00;;;23.50;57.40;;;;;;4964571;28;20998;-86
2022/04/18 12:40:46;;;;;;;0.00;0.00;;;23.20;59.30;;;;;;4950246;28;20489;-80
2022/04/18 12:43:14;;;;;;;0.00;0.00;;;23.70;57.20;;;;;;4944588;28;20458;-81
2022/04/18 12:45:44;;;;;;;0.00;0.00;;;24.00;56.10;;;;;;4949722;28;20477;-82
2022/04/18 12:48:09;;;;;;;0.00;0.00;;;23.50;57.70;;;;;;4952065;28;20805;-81
2022/04/18 12:50:35;;;;;;;0.00;0.00;;;22.70;61.10;;;;;;4952447;28;20434;-81
2022/04/18 12:53:01;;;;;;;0.00;0.00;;;23.00;61.40;;;;;;4945619;28;20210;-80
2022/04/18 12:55:29;;;;;;;0.00;0.00;;;23.80;58.90;;;;;;4951922;28;20456;-81
2022/04/18 12:57:55;;;;;;;0.00;0.00;;;24.20;58.50;;;;;;4957776;28;20230;-82
2022/04/18 13:00:21;;;;;;;0.00;0.00;;;24.20;66.50;;;;;;4954515;28;20454;-80
2022/04/18 13:03:07;;;;;;;0.00;0.00;;;23.90;67.40;;;;;;4948504;28;20222;-81
2022/04/18 13:05:53;;;;;;;0.00;0.00;;;23.10;70.10;;;;;;4947665;28;20190;-82
2022/04/18 13:08:19;;;;;;;0.00;0.00;;;23.80;67.40;;;;;;4948353;28;20489;-81
2022/04/18 13:10:46;;;;;;;0.00;0.00;;;24.40;70.10;;;;;;4947217;28;20458;-82
2022/04/18 13:13:19;;;;;;;0.00;0.00;;;24.40;67.50;;;;;;4951115;28;20966;-81
2022/04/18 13:15:46;;;;;;;0.00;0.00;;;24.80;69.10;;;;;;4949058;28;20866;-82
2022/04/18 13:18:18;;;;;;;0.00;0.00;;;24.30;65.70;;;;;;4950356;28;20445;-83
2022/04/18 13:20:45;;;;;;;0.00;0.00;;;23.50;66.90;;;;;;4950944;28;20446;-83
2022/04/18 13:23:10;;;;;;;0.00;0.00;;;23.60;70.60;;;;;;4948664;28;21021;-83
2022/04/18 13:25:36;;;;;;;0.00;0.00;;;23.10;69.00;;;;;;4951278;28;20578;-83
2022/04/18 13:28:07;;;;;;;0.00;0.00;;;23.10;69.10;;;;;;4961057;28;20194;-84
2022/04/18 13:30:34;;;;;;;0.00;0.00;;;23.30;69.50;;;;;;4949751;28;20191;-84
2022/04/18 13:33:00;;;;;;;0.00;0.00;;;23.00;68.20;;;;;;4948906;28;20453;-84